Macondo — 3EYB9 — position and weather

sailwx.info

Track history (hours):
 
Tides and Currents Weather Stations Pressure Air Temp Water Temp Dewpoint Dewpoint Depression Visibility Wind Speed Wind Dir Waves Ship Positions

Macondo

Last reported at 2015-Jun-20 08:08 UTC. Time now 2015-Jul-01 12:01 UTC.
Position N 29°20' W 094°47'.
Warning: this ship's position is 11 days out of date.

Length 120 m; draft 4.4 m.

Type: Ship. MMSI: 371293000.

Date/timePositionNaut miles runAvg speedWind from/ knotsBaromVisibWave heightAir tempDewpointWater temp
2015-Jun-20 08:08N 29°20' W 094°47'  
2015-Jun-15 22:33N 25°50' W 079°33'1010.0
2015-Jun-15 21:33N 25°60' W 079°32'9 9.5
2015-Jun-15 20:33N 26°09' W 079°31'10 9.7
2015-Jun-15 19:33N 26°19' W 079°29'1110.1
2015-Jun-15 18:27N 26°30' W 079°28'  
2015-Jun-12 11:24N 38°03' W 074°04'1111.9
2015-Jun-12 10:30N 38°10' W 074°14'1111.7
2015-Jun-12 09:33N 38°16' W 074°26'1211.7
2015-Jun-12 08:33N 38°23' W 074°38'1111.0
2015-Jun-12 07:31N 38°32' W 074°48'1111.1
2015-Jun-12 06:33N 38°40' W 074°56'1211.7
2015-Jun-12 05:33N 38°50' W 075°04'1111.1
2015-Jun-12 04:33N 39°00' W 075°09'1313.1
2015-Jun-12 03:34N 39°12' W 075°17'1413.9
2015-Jun-12 02:33N 39°23' W 075°28'1211.5
2015-Jun-12 01:33N 39°33' W 075°33'10 9.7
2015-Jun-12 00:33N 39°43' W 075°30'10 9.5
2015-Jun-11 23:33N 39°50' W 075°22'9 9.3
2015-Jun-11 22:33N 39°53' W 075°10'2 2.4
2015-Jun-11 21:33N 39°54' W 075°08'0 0.0
2015-Jun-11 20:33N 39°54' W 075°08'0 0.0
2015-Jun-11 19:33N 39°54' W 075°08'0 0.0
2015-Jun-11 18:33N 39°54' W 075°08'0 0.0
2015-Jun-11 17:33N 39°54' W 075°08'0 0.0
2015-Jun-11 16:33N 39°54' W 075°08'0 0.0
2015-Jun-11 15:33N 39°54' W 075°08'0 0.0
2015-Jun-11 14:33N 39°54' W 075°08'0 0.0
2015-Jun-11 13:33N 39°54' W 075°08'0 0.0
2015-Jun-11 12:33N 39°54' W 075°08'0 0.0
2015-Jun-11 11:33N 39°54' W 075°08'0 0.0
2015-Jun-11 10:33N 39°54' W 075°08'0 0.0
2015-Jun-11 09:33N 39°54' W 075°08'0 0.0
2015-Jun-11 08:33N 39°54' W 075°08'0 0.0
2015-Jun-11 07:33N 39°54' W 075°08'0 0.0
2015-Jun-11 06:34N 39°54' W 075°08'0 0.0
2015-Jun-11 05:33N 39°54' W 075°08'0 0.0
2015-Jun-11 04:34N 39°54' W 075°08'0 0.0
2015-Jun-11 03:33N 39°54' W 075°08'0 0.0
2015-Jun-11 02:33N 39°54' W 075°08'0 0.0
2015-Jun-11 01:33N 39°54' W 075°08'0 0.0
2015-Jun-11 00:33N 39°54' W 075°08'0 0.0
2015-Jun-10 23:33N 39°54' W 075°08'0 0.0
2015-Jun-10 22:33N 39°54' W 075°08'0 0.0
2015-Jun-10 21:34N 39°54' W 075°08'0 0.0
2015-Jun-10 20:33N 39°54' W 075°08'0 0.0
2015-Jun-10 19:33N 39°54' W 075°08'0 0.0
2015-Jun-10 18:34N 39°54' W 075°08'0 0.0
2015-Jun-10 17:33N 39°54' W 075°08'4 4.3
2015-Jun-10 16:33N 39°57' W 075°11'2 2.4
2015-Jun-10 15:33N 39°55' W 075°10'0 0.0
2015-Jun-10 14:33N 39°55' W 075°10'0 0.0
2015-Jun-10 13:33N 39°55' W 075°10'0 0.0
2015-Jun-10 12:33N 39°55' W 075°10'0 0.0
2015-Jun-10 11:33N 39°55' W 075°10'0 0.0
2015-Jun-10 10:33N 39°55' W 075°10'0 0.0
2015-Jun-10 09:33N 39°55' W 075°10'0 0.0
2015-Jun-10 08:33N 39°55' W 075°10'  
Track history (hours):
 
Tides and Currents Weather Stations Pressure Air Temp Water Temp Dewpoint Dewpoint Depression Visibility Wind Speed Wind Dir Waves Ship Positions

Macondo

Last reported at 2015-Jun-20 08:08 UTC. Time now 2015-Jul-01 12:01 UTC.
Position N 29°20' W 094°47'.
Warning: this ship's position is 11 days out of date.

Length 120 m; draft 4.4 m.

Type: Ship. MMSI: 371293000.

Date/timePositionNaut miles runAvg speedWind from/ knotsBaromVisibWave heightAir tempDewpointWater temp
2015-Jun-20 08:08N 29°20' W 094°47'  
2015-Jun-15 22:33N 25°50' W 079°33'1010.0
2015-Jun-15 21:33N 25°60' W 079°32'9 9.5
2015-Jun-15 20:33N 26°09' W 079°31'10 9.7
2015-Jun-15 19:33N 26°19' W 079°29'1110.1
2015-Jun-15 18:27N 26°30' W 079°28'  
2015-Jun-12 11:24N 38°03' W 074°04'1111.9
2015-Jun-12 10:30N 38°10' W 074°14'1111.7
2015-Jun-12 09:33N 38°16' W 074°26'1211.7
2015-Jun-12 08:33N 38°23' W 074°38'1111.0
2015-Jun-12 07:31N 38°32' W 074°48'1111.1
2015-Jun-12 06:33N 38°40' W 074°56'1211.7
2015-Jun-12 05:33N 38°50' W 075°04'1111.1
2015-Jun-12 04:33N 39°00' W 075°09'1313.1
2015-Jun-12 03:34N 39°12' W 075°17'1413.9
2015-Jun-12 02:33N 39°23' W 075°28'1211.5
2015-Jun-12 01:33N 39°33' W 075°33'10 9.7
2015-Jun-12 00:33N 39°43' W 075°30'10 9.5
2015-Jun-11 23:33N 39°50' W 075°22'9 9.3
2015-Jun-11 22:33N 39°53' W 075°10'2 2.4
2015-Jun-11 21:33N 39°54' W 075°08'0 0.0
2015-Jun-11 20:33N 39°54' W 075°08'0 0.0
2015-Jun-11 19:33N 39°54' W 075°08'0 0.0
2015-Jun-11 18:33N 39°54' W 075°08'0 0.0
2015-Jun-11 17:33N 39°54' W 075°08'0 0.0
2015-Jun-11 16:33N 39°54' W 075°08'0 0.0
2015-Jun-11 15:33N 39°54' W 075°08'0 0.0
2015-Jun-11 14:33N 39°54' W 075°08'0 0.0
2015-Jun-11 13:33N 39°54' W 075°08'0 0.0
2015-Jun-11 12:33N 39°54' W 075°08'0 0.0
2015-Jun-11 11:33N 39°54' W 075°08'0 0.0
2015-Jun-11 10:33N 39°54' W 075°08'0 0.0
2015-Jun-11 09:33N 39°54' W 075°08'0 0.0
2015-Jun-11 08:33N 39°54' W 075°08'0 0.0
2015-Jun-11 07:33N 39°54' W 075°08'0 0.0
2015-Jun-11 06:34N 39°54' W 075°08'0 0.0
2015-Jun-11 05:33N 39°54' W 075°08'0 0.0
2015-Jun-11 04:34N 39°54' W 075°08'0 0.0
2015-Jun-11 03:33N 39°54' W 075°08'0 0.0
2015-Jun-11 02:33N 39°54' W 075°08'0 0.0
2015-Jun-11 01:33N 39°54' W 075°08'0 0.0
2015-Jun-11 00:33N 39°54' W 075°08'0 0.0
2015-Jun-10 23:33N 39°54' W 075°08'0 0.0
2015-Jun-10 22:33N 39°54' W 075°08'0 0.0
2015-Jun-10 21:34N 39°54' W 075°08'0 0.0
2015-Jun-10 20:33N 39°54' W 075°08'0 0.0
2015-Jun-10 19:33N 39°54' W 075°08'0 0.0
2015-Jun-10 18:34N 39°54' W 075°08'0 0.0
2015-Jun-10 17:33N 39°54' W 075°08'4 4.3
2015-Jun-10 16:33N 39°57' W 075°11'2 2.4
2015-Jun-10 15:33N 39°55' W 075°10'0 0.0
2015-Jun-10 14:33N 39°55' W 075°10'0 0.0
2015-Jun-10 13:33N 39°55' W 075°10'0 0.0
2015-Jun-10 12:33N 39°55' W 075°10'0 0.0
2015-Jun-10 11:33N 39°55' W 075°10'0 0.0
2015-Jun-10 10:33N 39°55' W 075°10'0 0.0
2015-Jun-10 09:33N 39°55' W 075°10'0 0.0
2015-Jun-10 08:33N 39°55' W 075°10'  

Dump ship's entire track history